Time;durP1;ratioP1;P1;durP2;ratioP2;P2;SDS_P1;SDS_P2;PMS_P1;PMS_P2;Temp;Humidity;BMP_temperature;BMP_pressure;BME280_temperature;BME280_humidity;BME280_pressure;Samples;Min_cycle;Max_cycle;Signal;HPM_P1;HPM_P2
2021/11/23 03:43:20;;;;;;;6.32;5.45;;;-0.30;99.90;;;;;;487000;235;27410;-71
2021/11/23 03:45:21;;;;;;;7.53;5.47;;;-0.30;99.90;;;;;;483620;246;27487;-71
2021/11/23 03:47:23;;;;;;;9.18;5.87;;;-0.30;99.90;;;;;;483618;246;27411;-71
2021/11/23 03:49:24;;;;;;;5.57;5.07;;;-0.40;99.90;;;;;;483629;246;27918;-72
2021/11/23 03:51:25;;;;;;;6.82;5.50;;;-0.40;99.90;;;;;;483628;246;27930;-71
2021/11/23 03:53:26;;;;;;;7.75;6.45;;;-0.40;99.90;;;;;;483651;246;27843;-71
2021/11/23 03:55:28;;;;;;;7.75;6.20;;;-0.40;99.90;;;;;;483669;246;27407;-72
2021/11/23 03:57:29;;;;;;;6.00;5.32;;;-0.30;99.90;;;;;;483648;246;27359;-71
2021/11/23 03:59:30;;;;;;;7.55;5.60;;;-0.30;99.90;;;;;;483637;246;27406;-71
2021/11/23 04:01:31;;;;;;;8.27;5.53;;;-0.30;99.90;;;;;;483640;246;27375;-72
2021/11/23 04:03:34;;;;;;;7.85;5.55;;;-0.30;99.90;;;;;;483667;246;27403;-72
2021/11/23 04:05:34;;;;;;;8.00;6.28;;;-0.30;99.90;;;;;;483586;246;27400;-71
2021/11/23 04:07:39;;;;;;;8.15;5.90;;;-0.30;99.90;;;;;;483624;246;27467;-72
2021/11/23 04:09:36;;;;;;;7.05;6.35;;;-0.30;99.90;;;;;;483405;245;27867;-71
2021/11/23 04:11:38;;;;;;;8.13;5.65;;;-0.30;99.90;;;;;;483615;246;30077;-71
2021/11/23 04:13:40;;;;;;;7.47;5.47;;;-0.30;99.90;;;;;;483648;246;27831;-72
2021/11/23 04:15:40;;;;;;;6.10;5.28;;;-0.30;99.90;;;;;;483552;245;27416;-71
2021/11/23 04:17:41;;;;;;;6.70;5.70;;;-0.30;99.90;;;;;;483636;246;27440;-71
2021/11/23 04:19:43;;;;;;;7.10;5.68;;;-0.30;99.90;;;;;;483639;246;27438;-71
2021/11/23 04:21:44;;;;;;;7.12;5.93;;;-0.30;99.90;;;;;;483617;246;27407;-71
2021/11/23 04:23:45;;;;;;;6.20;5.37;;;-0.20;99.90;;;;;;483661;244;27379;-71
2021/11/23 04:25:46;;;;;;;8.13;5.40;;;-0.20;99.90;;;;;;483634;246;27494;-71
2021/11/23 04:27:49;;;;;;;4.87;4.43;;;-0.20;99.90;;;;;;483649;246;27371;-72
2021/11/23 04:29:49;;;;;;;6.90;5.25;;;-0.20;99.90;;;;;;483585;246;27985;-71
2021/11/23 04:31:50;;;;;;;5.22;4.78;;;-0.20;99.90;;;;;;483651;246;28033;-71
2021/11/23 04:33:51;;;;;;;8.07;5.22;;;-0.20;99.90;;;;;;483641;246;28960;-71
2021/11/23 04:35:53;;;;;;;5.55;5.05;;;-0.20;99.90;;;;;;483657;246;27439;-71
2021/11/23 04:37:54;;;;;;;5.20;4.62;;;-0.10;99.90;;;;;;483651;246;27367;-71
2021/11/23 04:39:55;;;;;;;5.85;5.25;;;-0.10;99.90;;;;;;483638;246;27383;-72
2021/11/23 04:41:56;;;;;;;5.05;4.60;;;-0.10;99.90;;;;;;483643;246;27426;-72
2021/11/23 04:43:58;;;;;;;6.15;5.32;;;-0.10;99.90;;;;;;483656;246;27412;-71
2021/11/23 04:45:59;;;;;;;5.15;4.45;;;-0.10;99.90;;;;;;483641;246;27493;-71
2021/11/23 04:48:00;;;;;;;6.65;5.22;;;-0.10;99.90;;;;;;483606;246;27375;-72
2021/11/23 04:50:01;;;;;;;4.80;4.40;;;0.00;99.90;;;;;;483620;246;27896;-71
2021/11/23 04:52:03;;;;;;;5.97;4.72;;;0.00;99.90;;;;;;483649;246;27925;-71
2021/11/23 04:54:04;;;;;;;5.28;4.53;;;-0.10;99.90;;;;;;483637;246;29034;-72
2021/11/23 04:56:05;;;;;;;4.75;4.30;;;-0.10;99.90;;;;;;483651;246;27483;-71
2021/11/23 04:58:06;;;;;;;5.65;4.68;;;-0.10;99.90;;;;;;483644;246;27448;-71
2021/11/23 05:00:08;;;;;;;6.57;5.40;;;-0.10;99.90;;;;;;483673;246;27539;-71
2021/11/23 05:02:09;;;;;;;7.35;5.68;;;-0.10;99.90;;;;;;483682;246;27400;-71
2021/11/23 05:04:10;;;;;;;6.65;5.70;;;-0.20;99.90;;;;;;483662;246;27395;-71
2021/11/23 05:06:11;;;;;;;7.72;6.18;;;-0.20;99.90;;;;;;483619;245;27431;-71
2021/11/23 05:08:13;;;;;;;6.00;5.40;;;-0.20;99.90;;;;;;483599;246;27418;-71
2021/11/23 05:10:14;;;;;;;5.60;5.10;;;-0.20;99.90;;;;;;483630;246;27847;-71
2021/11/23 05:12:15;;;;;;;5.93;5.00;;;-0.30;99.90;;;;;;483644;246;27993;-71
2021/11/23 05:14:16;;;;;;;6.47;5.28;;;-0.30;99.90;;;;;;483605;246;27845;-71
2021/11/23 05:16:18;;;;;;;7.62;5.40;;;-0.30;99.90;;;;;;483619;246;27483;-71
2021/11/23 05:18:19;;;;;;;6.25;5.75;;;-0.30;99.90;;;;;;483654;246;27412;-71
2021/11/23 05:20:20;;;;;;;6.25;5.00;;;-0.30;99.90;;;;;;483624;246;27431;-71
2021/11/23 05:22:21;;;;;;;9.35;5.82;;;-0.40;99.90;;;;;;483645;246;27501;-72
2021/11/23 05:24:23;;;;;;;6.68;5.80;;;-0.40;99.90;;;;;;483629;246;27495;-71
2021/11/23 05:26:24;;;;;;;6.22;5.60;;;-0.40;99.90;;;;;;483606;246;27499;-72
2021/11/23 05:28:26;;;;;;;7.45;6.68;;;-0.40;99.90;;;;;;483651;246;27407;-72
2021/11/23 05:30:27;;;;;;;5.78;5.25;;;-0.40;99.90;;;;;;483657;246;27917;-71
2021/11/23 05:32:28;;;;;;;7.25;6.05;;;-0.40;99.90;;;;;;483627;246;28967;-71
2021/11/23 05:34:29;;;;;;;6.22;5.62;;;-0.40;99.90;;;;;;483614;246;29024;-72
2021/11/23 05:36:30;;;;;;;7.93;5.72;;;-0.40;99.90;;;;;;483620;246;27431;-71
2021/11/23 05:38:32;;;;;;;10.38;6.00;;;-0.40;99.90;;;;;;483662;246;27491;-71
2021/11/23 05:40:33;;;;;;;6.12;5.57;;;-0.40;99.90;;;;;;483642;246;27404;-72
2021/11/23 05:42:34;;;;;;;7.50;6.70;;;-0.40;99.90;;;;;;483587;246;27498;-71
2021/11/23 05:44:35;;;;;;;5.93;5.43;;;-0.30;99.90;;;;;;483612;246;27371;-71
2021/11/23 05:46:37;;;;;;;6.30;5.05;;;-0.40;99.90;;;;;;483647;246;27298;-72
2021/11/23 05:48:38;;;;;;;7.12;4.87;;;-0.40;99.90;;;;;;483615;246;27446;-72
2021/11/23 05:50:39;;;;;;;5.90;5.40;;;-0.30;99.90;;;;;;483640;246;28021;-71
2021/11/23 05:52:40;;;;;;;7.10;5.70;;;-0.30;99.90;;;;;;483624;246;28960;-72
2021/11/23 05:54:42;;;;;;;6.62;5.93;;;-0.30;99.90;;;;;;483622;246;27371;-71
2021/11/23 05:56:43;;;;;;;10.95;6.70;;;-0.30;99.90;;;;;;483655;246;27411;-72
2021/11/23 05:58:44;;;;;;;8.70;6.30;;;-0.30;99.90;;;;;;483638;246;27442;-72
2021/11/23 06:00:45;;;;;;;7.25;6.05;;;-0.30;99.90;;;;;;483626;240;27455;-72
2021/11/23 06:02:47;;;;;;;7.37;6.50;;;-0.30;99.90;;;;;;483604;246;27224;-71
2021/11/23 06:04:48;;;;;;;6.95;6.25;;;-0.30;99.90;;;;;;483585;246;27843;-71
2021/11/23 06:06:49;;;;;;;8.25;6.72;;;-0.40;99.90;;;;;;483629;246;27514;-71
2021/11/23 06:08:50;;;;;;;8.00;6.90;;;-0.40;99.90;;;;;;483652;246;27866;-71
2021/11/23 06:10:52;;;;;;;6.78;6.12;;;-0.50;99.90;;;;;;483598;241;27980;-71
2021/11/23 06:12:53;;;;;;;6.20;5.62;;;-0.50;99.90;;;;;;483597;246;28987;-71
2021/11/23 06:14:54;;;;;;;6.60;6.00;;;-0.50;99.90;;;;;;483592;246;27487;-71
2021/11/23 06:16:56;;;;;;;7.75;6.60;;;-0.50;99.90;;;;;;483647;246;27370;-71
2021/11/23 06:18:57;;;;;;;8.23;6.87;;;-0.50;99.90;;;;;;483629;246;27483;-71
2021/11/23 06:20:58;;;;;;;9.90;6.37;;;-0.50;99.90;;;;;;483594;246;27477;-71
2021/11/23 06:22:59;;;;;;;8.60;7.37;;;-0.50;99.90;;;;;;483611;246;27412;-71
2021/11/23 06:25:00;;;;;;;7.28;6.57;;;-0.50;99.90;;;;;;483659;246;27418;-72
2021/11/23 06:27:02;;;;;;;7.70;6.47;;;-0.50;99.90;;;;;;483622;246;27396;-71
2021/11/23 06:29:03;;;;;;;7.25;6.43;;;-0.50;99.90;;;;;;483626;246;27897;-72
2021/11/23 06:31:04;;;;;;;7.65;6.22;;;-0.60;99.90;;;;;;483599;246;27982;-71
2021/11/23 06:33:05;;;;;;;9.02;6.40;;;-0.60;99.90;;;;;;483607;246;29026;-71
2021/11/23 06:35:07;;;;;;;6.20;5.60;;;-0.60;99.90;;;;;;483658;240;27412;-71
2021/11/23 06:37:08;;;;;;;6.15;5.60;;;-0.60;99.90;;;;;;483615;246;27383;-71
2021/11/23 06:39:09;;;;;;;6.03;5.45;;;-0.60;99.90;;;;;;483628;246;27411;-71
2021/11/23 06:41:10;;;;;;;5.65;5.15;;;-0.60;99.90;;;;;;483606;246;27393;-71
2021/11/23 06:43:12;;;;;;;6.47;5.35;;;-0.60;99.90;;;;;;483625;246;27435;-71
2021/11/23 06:45:16;;;;;;;5.57;5.00;;;-0.60;99.90;;;;;;483645;246;27495;-72
2021/11/23 06:47:17;;;;;;;5.60;5.00;;;-0.60;99.90;;;;;;483619;240;27411;-72
2021/11/23 06:49:18;;;;;;;5.78;5.28;;;-0.60;99.90;;;;;;483670;240;27448;-71
2021/11/23 06:51:20;;;;;;;5.78;5.25;;;-0.60;99.90;;;;;;483653;246;27489;-71
2021/11/23 06:53:21;;;;;;;6.18;5.57;;;-0.60;99.90;;;;;;483655;240;28421;-71
2021/11/23 06:55:22;;;;;;;8.27;6.18;;;-0.60;99.90;;;;;;483651;246;27823;-71
2021/11/23 06:57:23;;;;;;;5.80;5.20;;;-0.70;99.90;;;;;;483619;246;29104;-73
2021/11/23 06:59:25;;;;;;;5.20;4.80;;;-0.70;99.90;;;;;;483593;246;27363;-72
2021/11/23 07:01:26;;;;;;;5.97;5.20;;;-0.70;99.90;;;;;;483605;246;27479;-73
2021/11/23 07:03:28;;;;;;;6.12;5.30;;;-0.60;99.90;;;;;;483623;246;27491;-73
2021/11/23 07:05:29;;;;;;;5.12;3.90;;;-0.60;99.90;;;;;;483591;246;27420;-74
2021/11/23 07:07:31;;;;;;;5.12;4.40;;;-0.60;99.90;;;;;;483546;246;27379;-73
2021/11/23 07:09:32;;;;;;;4.03;3.62;;;-0.60;99.90;;;;;;483496;246;27981;-72
2021/11/23 07:11:33;;;;;;;4.00;3.70;;;-0.60;99.90;;;;;;483558;240;28064;-73
2021/11/23 07:13:34;;;;;;;3.75;3.40;;;-0.70;99.90;;;;;;483616;246;27942;-73
2021/11/23 07:15:36;;;;;;;3.90;3.60;;;-0.60;99.90;;;;;;483628;246;27521;-74
2021/11/23 07:17:37;;;;;;;3.53;3.25;;;-0.70;99.90;;;;;;483594;246;27367;-72
2021/11/23 07:19:38;;;;;;;3.30;3.00;;;-0.60;99.90;;;;;;483553;246;27533;-73
2021/11/23 07:21:39;;;;;;;4.43;3.85;;;-0.60;99.90;;;;;;483101;242;27402;-73
2021/11/23 07:23:41;;;;;;;3.75;3.45;;;-0.70;99.90;;;;;;482009;245;27509;-73
2021/11/23 07:25:42;;;;;;;3.80;3.50;;;-0.80;99.90;;;;;;481702;243;27530;-73
2021/11/23 07:27:43;;;;;;;3.60;3.30;;;-0.70;99.90;;;;;;481999;245;27532;-73
2021/11/23 07:29:45;;;;;;;4.07;3.67;;;-0.80;99.90;;;;;;482009;245;27990;-74
2021/11/23 07:31:46;;;;;;;3.97;3.45;;;-0.80;99.90;;;;;;482023;245;28074;-74
2021/11/23 07:33:47;;;;;;;5.80;3.47;;;-0.80;99.90;;;;;;482028;245;29058;-73
2021/11/23 07:35:48;;;;;;;3.90;3.55;;;-0.80;99.90;;;;;;482078;245;27524;-74
2021/11/23 07:37:49;;;;;;;4.37;3.97;;;-0.70;99.90;;;;;;482026;245;27548;-73
2021/11/23 07:39:51;;;;;;;4.50;3.92;;;-0.70;99.90;;;;;;482030;245;27560;-73
2021/11/23 07:41:53;;;;;;;5.55;4.00;;;-0.70;99.90;;;;;;482050;245;27670;-73
2021/11/23 07:43:55;;;;;;;3.65;3.35;;;-0.60;99.90;;;;;;482029;245;27562;-73
2021/11/23 07:45:56;;;;;;;5.90;4.00;;;-0.60;99.90;;;;;;481734;245;27558;-73
2021/11/23 07:47:57;;;;;;;5.60;4.68;;;-0.60;99.90;;;;;;481099;245;27954;-73
2021/11/23 07:49:58;;;;;;;5.35;4.72;;;-0.60;99.90;;;;;;481062;245;27941;-74
2021/11/23 07:52:00;;;;;;;13.60;5.20;;;-0.60;99.90;;;;;;481065;245;27942;-73
2021/11/23 07:54:01;;;;;;;5.20;4.80;;;-0.60;99.90;;;;;;481000;245;27437;-73
2021/11/23 07:56:02;;;;;;;5.55;5.05;;;-0.50;99.90;;;;;;481000;245;27496;-74
2021/11/23 07:58:03;;;;;;;5.10;4.60;;;-0.50;99.90;;;;;;481099;245;27422;-74
2021/11/23 08:00:05;;;;;;;5.10;4.20;;;-0.50;99.90;;;;;;481060;245;27529;-73
2021/11/23 08:02:06;;;;;;;6.18;4.47;;;-0.40;99.90;;;;;;481035;245;27580;-74
2021/11/23 08:04:07;;;;;;;6.28;4.57;;;-0.30;99.90;;;;;;481062;245;27457;-73
2021/11/23 08:06:08;;;;;;;4.82;4.43;;;-0.30;99.90;;;;;;481001;245;27406;-73
2021/11/23 08:08:10;;;;;;;5.10;4.70;;;-0.30;99.90;;;;;;481061;245;27946;-74
2021/11/23 08:10:11;;;;;;;4.55;4.15;;;-0.20;99.90;;;;;;481058;245;29042;-73
2021/11/23 08:12:12;;;;;;;5.15;4.65;;;-0.10;99.90;;;;;;481046;245;27608;-73
2021/11/23 08:14:13;;;;;;;5.75;3.97;;;0.00;99.90;;;;;;481010;245;27453;-73
2021/11/23 08:16:15;;;;;;;4.65;4.25;;;0.10;99.90;;;;;;481032;245;27481;-74
2021/11/23 08:18:16;;;;;;;3.87;3.58;;;0.10;99.90;;;;;;480994;245;27386;-73
2021/11/23 08:20:17;;;;;;;4.70;3.50;;;0.10;99.90;;;;;;481055;245;27497;-74
2021/11/23 08:22:18;;;;;;;3.50;3.20;;;0.20;99.90;;;;;;481037;245;27414;-74
2021/11/23 08:24:20;;;;;;;4.97;2.90;;;0.30;99.90;;;;;;481016;245;27438;-73
2021/11/23 08:26:22;;;;;;;4.75;3.62;;;0.30;99.90;;;;;;481034;245;27469;-74
2021/11/23 08:28:24;;;;;;;3.78;3.45;;;0.30;99.90;;;;;;481049;245;27472;-73
2021/11/23 08:30:23;;;;;;;5.68;3.55;;;0.40;99.90;;;;;;480888;245;27696;-73
2021/11/23 08:32:25;;;;;;;4.25;3.85;;;0.50;99.90;;;;;;481054;245;27835;-74
2021/11/23 08:34:27;;;;;;;4.53;3.37;;;0.60;99.90;;;;;;481054;245;27931;-73
2021/11/23 08:36:27;;;;;;;4.43;4.03;;;0.60;99.90;;;;;;480929;247;28143;-74
2021/11/23 08:38:28;;;;;;;4.28;3.42;;;0.60;99.90;;;;;;481075;245;27977;-73
2021/11/23 08:40:30;;;;;;;4.97;3.45;;;0.60;99.90;;;;;;481078;245;27544;-74
2021/11/23 08:42:31;;;;;;;3.50;3.20;;;0.60;99.90;;;;;;480962;245;27405;-74
2021/11/23 08:44:32;;;;;;;3.87;3.58;;;0.60;99.90;;;;;;481020;245;27445;-74
2021/11/23 08:46:33;;;;;;;3.62;3.33;;;0.60;99.90;;;;;;481030;245;27821;-74
2021/11/23 08:48:35;;;;;;;3.97;3.58;;;0.60;99.90;;;;;;481049;245;27465;-74
2021/11/23 08:50:36;;;;;;;4.37;4.03;;;0.70;99.90;;;;;;481042;245;27546;-73
2021/11/23 08:52:37;;;;;;;4.28;3.60;;;0.70;99.90;;;;;;481001;245;27604;-74
2021/11/23 08:54:38;;;;;;;4.12;3.72;;;0.70;99.90;;;;;;480877;245;27616;-73
2021/11/23 08:56:43;;;;;;;4.10;3.70;;;0.80;99.90;;;;;;480942;245;27549;-73
2021/11/23 08:58:42;;;;;;;4.90;3.65;;;0.80;99.90;;;;;;480668;247;27421;-74
2021/11/23 09:00:43;;;;;;;3.90;3.60;;;0.80;99.90;;;;;;480741;245;28048;-74
2021/11/23 09:02:43;;;;;;;3.80;3.50;;;0.90;99.90;;;;;;480806;245;27974;-76
2021/11/23 09:04:45;;;;;;;4.00;3.60;;;1.00;99.90;;;;;;480971;245;27930;-73
2021/11/23 09:06:46;;;;;;;5.37;3.78;;;1.10;99.90;;;;;;480999;245;28012;-74
2021/11/23 09:08:58;;;;;;;4.03;3.55;;;1.10;99.90;;;;;;481063;245;27425;-73
2021/11/23 09:10:58;;;;;;;4.60;3.90;;;1.10;99.90;;;;;;480928;247;27758;-74
2021/11/23 09:12:59;;;;;;;5.20;4.05;;;1.20;99.90;;;;;;481081;245;27406;-74
2021/11/23 09:15:00;;;;;;;4.00;3.60;;;1.20;99.90;;;;;;481035;245;27928;-74
2021/11/23 09:17:01;;;;;;;6.40;3.45;;;1.30;99.90;;;;;;481045;245;28061;-74
2021/11/23 09:19:03;;;;;;;4.70;3.70;;;1.40;99.90;;;;;;481005;245;27916;-74
2021/11/23 09:21:04;;;;;;;3.80;3.20;;;1.40;99.90;;;;;;481088;245;29120;-74
2021/11/23 09:23:05;;;;;;;3.80;3.50;;;1.50;99.90;;;;;;481057;245;27478;-74
2021/11/23 09:25:06;;;;;;;4.00;3.70;;;1.60;99.90;;;;;;481080;245;27512;-74
2021/11/23 09:27:08;;;;;;;3.62;3.30;;;1.60;99.90;;;;;;481023;245;27389;-73
2021/11/23 09:29:09;;;;;;;3.50;3.03;;;1.70;99.90;;;;;;481004;245;27505;-73
2021/11/23 09:31:10;;;;;;;3.33;3.12;;;1.70;99.90;;;;;;481029;245;27425;-73
2021/11/23 09:33:14;;;;;;;3.33;3.05;;;1.80;99.90;;;;;;481090;245;27495;-74
2021/11/23 09:35:14;;;;;;;3.83;3.37;;;2.00;99.90;;;;;;480961;247;27425;-74
2021/11/23 09:37:14;;;;;;;5.05;2.80;;;2.00;99.90;;;;;;481030;245;27513;-73
2021/11/23 09:39:15;;;;;;;2.87;2.67;;;2.10;99.90;;;;;;481007;246;27438;-74
2021/11/23 09:41:16;;;;;;;2.85;2.50;;;2.20;99.90;;;;;;480967;245;27473;-73
2021/11/23 09:43:18;;;;;;;2.83;2.65;;;2.40;99.90;;;;;;480678;245;28618;-73
2021/11/23 09:45:19;;;;;;;3.40;2.50;;;2.50;99.90;;;;;;480870;245;28016;-74
2021/11/23 09:47:21;;;;;;;2.62;2.50;;;2.60;99.90;;;;;;480954;245;27959;-74
2021/11/23 09:49:21;;;;;;;2.30;2.20;;;2.80;99.90;;;;;;481065;245;27865;-74
2021/11/23 09:51:28;;;;;;;2.22;2.03;;;2.80;99.90;;;;;;481096;245;27480;-73
2021/11/23 09:53:27;;;;;;;5.78;2.75;;;2.80;99.90;;;;;;480970;247;27924;-73
2021/11/23 09:55:28;;;;;;;2.17;2.03;;;2.90;99.90;;;;;;481064;245;28947;-74
2021/11/23 09:57:29;;;;;;;2.00;1.90;;;2.90;99.90;;;;;;481064;245;27430;-73
2021/11/23 09:59:31;;;;;;;2.10;2.00;;;2.90;99.90;;;;;;481069;245;27414;-73
2021/11/23 10:01:32;;;;;;;1.95;1.85;;;3.00;99.90;;;;;;481060;245;27469;-73
2021/11/23 10:03:33;;;;;;;2.00;1.90;;;3.10;99.90;;;;;;481085;245;27534;-73
2021/11/23 10:05:36;;;;;;;2.00;1.90;;;3.10;99.90;;;;;;481081;245;27528;-73
2021/11/23 10:07:36;;;;;;;2.03;1.80;;;3.20;99.90;;;;;;480972;246;27463;-74
2021/11/23 10:09:37;;;;;;;1.85;1.75;;;3.30;99.90;;;;;;481057;245;27508;-73
2021/11/23 10:11:38;;;;;;;1.80;1.70;;;3.40;99.90;;;;;;481097;245;27486;-73
2021/11/23 10:13:39;;;;;;;5.72;2.20;;;3.40;99.90;;;;;;481062;245;27524;-74
2021/11/23 10:15:45;;;;;;;2.15;2.05;;;3.30;99.90;;;;;;481073;245;27569;-73
2021/11/23 10:17:42;;;;;;;2.28;2.05;;;3.40;99.90;;;;;;483755;242;27964;-74
2021/11/23 10:19:43;;;;;;;2.97;2.10;;;3.40;99.90;;;;;;480957;245;27909;-73
2021/11/23 10:21:44;;;;;;;2.00;1.90;;;3.40;99.90;;;;;;481031;246;27885;-73
2021/11/23 10:23:47;;;;;;;1.90;1.80;;;3.50;99.90;;;;;;480989;245;27908;-74
2021/11/23 10:25:47;;;;;;;1.73;1.62;;;3.50;99.90;;;;;;480967;245;27483;-73
2021/11/23 10:27:48;;;;;;;2.05;1.85;;;3.70;99.90;;;;;;481034;245;27505;-73
2021/11/23 10:29:50;;;;;;;2.00;1.80;;;3.70;99.90;;;;;;480982;245;27425;-73
2021/11/23 10:31:52;;;;;;;2.67;2.05;;;3.60;99.90;;;;;;480982;245;27470;-74
2021/11/23 10:33:52;;;;;;;1.60;1.50;;;3.80;99.90;;;;;;480971;247;27429;-73
2021/11/23 10:35:55;;;;;;;2.42;2.00;;;3.80;99.90;;;;;;481012;245;27516;-74
2021/11/23 10:37:54;;;;;;;3.22;1.62;;;3.80;99.90;;;;;;480972;246;27559;-73
2021/11/23 10:39:56;;;;;;;3.35;1.55;;;3.90;99.90;;;;;;481071;245;27422;-74
2021/11/23 10:41:57;;;;;;;1.80;1.70;;;3.90;99.90;;;;;;480992;245;27418;-73
2021/11/23 10:43:58;;;;;;;1.85;1.75;;;3.90;99.90;;;;;;480886;247;27518;-74
2021/11/23 10:45:59;;;;;;;1.75;1.65;;;3.90;99.90;;;;;;481026;245;27942;-74
2021/11/23 10:48:01;;;;;;;2.83;1.60;;;4.00;99.90;;;;;;480966;245;27987;-74
2021/11/23 10:50:02;;;;;;;1.65;1.52;;;4.10;99.90;;;;;;481069;245;27914;-74
2021/11/23 10:52:03;;;;;;;2.35;1.60;;;4.00;99.90;;;;;;480903;245;27919;-73
2021/11/23 10:54:04;;;;;;;1.90;1.80;;;4.00;99.90;;;;;;480852;245;27465;-74
2021/11/23 10:56:06;;;;;;;2.25;2.05;;;4.10;99.90;;;;;;480822;245;27494;-74
2021/11/23 10:58:08;;;;;;;2.83;1.58;;;4.20;99.90;;;;;;481061;245;27441;-73
2021/11/23 11:00:09;;;;;;;3.42;1.90;;;4.20;99.90;;;;;;481016;245;27517;-73
2021/11/23 11:02:09;;;;;;;2.00;1.90;;;4.30;99.90;;;;;;481069;245;27394;-73
2021/11/23 11:04:11;;;;;;;1.52;1.42;;;4.30;99.90;;;;;;481102;245;27473;-74
2021/11/23 11:06:12;;;;;;;1.60;1.50;;;4.30;99.90;;;;;;481042;245;27416;-73
2021/11/23 11:08:15;;;;;;;2.97;1.55;;;4.30;99.90;;;;;;481080;245;27422;-74
2021/11/23 11:10:14;;;;;;;2.00;1.83;;;4.30;99.90;;;;;;481050;247;27517;-73
2021/11/23 11:12:16;;;;;;;1.40;1.30;;;4.40;99.90;;;;;;481073;245;27487;-73
2021/11/23 11:14:17;;;;;;;1.62;1.52;;;4.40;99.90;;;;;;481043;245;27517;-74
2021/11/23 11:16:19;;;;;;;1.70;1.60;;;4.40;99.90;;;;;;481103;245;28703;-73
2021/11/23 11:18:22;;;;;;;6.55;1.85;;;4.50;99.90;;;;;;481076;245;27854;-73
2021/11/23 11:20:21;;;;;;;1.85;1.75;;;4.50;99.90;;;;;;480995;247;28044;-74
2021/11/23 11:22:23;;;;;;;1.60;1.50;;;4.50;99.90;;;;;;480937;246;27930;-73
2021/11/23 11:24:25;;;;;;;2.35;1.40;;;4.50;99.90;;;;;;481062;245;27438;-73
2021/11/23 11:26:27;;;;;;;1.85;1.75;;;4.50;99.90;;;;;;480950;247;27438;-73
2021/11/23 11:28:26;;;;;;;1.50;1.40;;;4.60;99.90;;;;;;480903;247;27385;-73
2021/11/23 11:30:30;;;;;;;3.65;1.45;;;4.50;99.90;;;;;;481083;246;27552;-74
2021/11/23 11:32:28;;;;;;;2.00;1.77;;;4.50;99.90;;;;;;480880;247;27394;-73
2021/11/23 11:34:30;;;;;;;1.60;1.50;;;4.60;99.90;;;;;;481076;245;27564;-73
2021/11/23 11:36:31;;;;;;;1.62;1.52;;;4.60;99.90;;;;;;481127;245;27422;-73
2021/11/23 11:38:32;;;;;;;1.30;1.30;;;4.60;99.90;;;;;;481109;245;27414;-73
2021/11/23 11:40:33;;;;;;;2.12;1.92;;;4.70;99.90;;;;;;481070;245;27522;-74
2021/11/23 11:42:36;;;;;;;2.50;1.73;;;4.60;99.90;;;;;;481062;245;28111;-73
2021/11/23 11:44:37;;;;;;;1.48;1.37;;;4.70;99.90;;;;;;481023;246;27892;-73
2021/11/23 11:46:37;;;;;;;1.52;1.42;;;4.70;99.90;;;;;;481021;247;27937;-74
2021/11/23 11:48:38;;;;;;;1.45;1.35;;;4.80;99.90;;;;;;481086;245;27952;-73
2021/11/23 11:50:39;;;;;;;3.25;1.40;;;4.80;99.90;;;;;;481083;245;27898;-74
2021/11/23 11:52:41;;;;;;;4.50;1.40;;;4.80;99.90;;;;;;481046;245;27481;-73
2021/11/23 11:54:44;;;;;;;1.70;1.60;;;4.80;99.90;;;;;;481072;245;27418;-74
2021/11/23 11:56:43;;;;;;;2.10;1.95;;;4.80;99.90;;;;;;480955;247;27465;-75
2021/11/23 11:58:44;;;;;;;2.30;1.45;;;4.70;99.90;;;;;;481091;245;27456;-73
2021/11/23 12:00:46;;;;;;;1.55;1.42;;;4.80;99.90;;;;;;481088;246;27544;-73
2021/11/23 12:02:47;;;;;;;2.00;1.40;;;4.90;99.90;;;;;;481071;245;27401;-74
2021/11/23 12:04:48;;;;;;;1.33;1.30;;;4.90;99.90;;;;;;481068;245;27496;-74
2021/11/23 12:06:49;;;;;;;2.55;1.52;;;4.90;99.90;;;;;;481074;245;27465;-74
2021/11/23 12:08:55;;;;;;;1.55;1.45;;;4.80;99.90;;;;;;481090;245;27469;-73
2021/11/23 12:10:52;;;;;;;2.12;1.62;;;4.90;99.90;;;;;;480740;247;27878;-73
2021/11/23 12:12:53;;;;;;;1.92;1.27;;;4.90;99.90;;;;;;481070;245;28717;-74
2021/11/23 12:14:56;;;;;;;4.20;1.80;;;5.00;99.90;;;;;;481101;245;28267;-73
2021/11/23 12:16:56;;;;;;;2.47;1.60;;;5.00;99.90;;;;;;481045;247;27940;-74
2021/11/23 12:18:58;;;;;;;1.50;1.40;;;5.00;99.90;;;;;;481103;245;27508;-73
2021/11/23 12:20:58;;;;;;;2.55;1.58;;;5.00;99.90;;;;;;481049;245;27525;-73
2021/11/23 12:22:59;;;;;;;1.30;1.30;;;5.00;99.90;;;;;;481040;245;27402;-74
2021/11/23 12:25:01;;;;;;;1.95;1.45;;;5.10;99.90;;;;;;481091;245;27472;-74
2021/11/23 12:27:02;;;;;;;1.98;1.87;;;5.10;99.90;;;;;;481077;245;27417;-73
2021/11/23 12:29:03;;;;;;;1.62;1.52;;;5.20;99.90;;;;;;481036;245;27524;-73
2021/11/23 12:31:04;;;;;;;4.28;1.40;;;5.20;99.90;;;;;;481084;245;27784;-73
2021/11/23 12:33:07;;;;;;;2.15;1.60;;;5.10;99.90;;;;;;481144;245;27437;-73
2021/11/23 12:35:07;;;;;;;1.45;1.35;;;5.20;99.90;;;;;;481039;247;27477;-73
2021/11/23 12:37:08;;;;;;;2.05;1.40;;;5.10;99.90;;;;;;481090;245;27431;-73
2021/11/23 12:39:10;;;;;;;1.33;1.10;;;5.10;99.90;;;;;;481073;245;27933;-73
2021/11/23 12:41:11;;;;;;;1.50;1.40;;;5.10;99.90;;;;;;481098;245;27949;-73
2021/11/23 12:43:12;;;;;;;1.50;1.42;;;5.20;99.90;;;;;;481110;245;27912;-74
2021/11/23 12:45:13;;;;;;;2.17;1.40;;;5.20;99.90;;;;;;481087;245;27517;-73
2021/11/23 12:47:15;;;;;;;1.60;1.50;;;5.30;99.90;;;;;;481096;245;27459;-74
2021/11/23 12:49:16;;;;;;;2.08;1.40;;;5.10;99.90;;;;;;481113;245;27477;-73
2021/11/23 12:51:17;;;;;;;1.60;1.50;;;5.20;99.90;;;;;;481099;245;27473;-73
2021/11/23 12:53:18;;;;;;;1.75;1.30;;;5.30;99.90;;;;;;481133;245;27422;-73
2021/11/23 12:55:20;;;;;;;1.30;1.30;;;5.20;99.90;;;;;;481081;245;27398;-74
2021/11/23 12:57:21;;;;;;;2.10;1.58;;;5.10;99.90;;;;;;481035;245;27426;-74
2021/11/23 12:59:22;;;;;;;1.70;1.60;;;5.10;99.90;;;;;;481109;245;27743;-74
2021/11/23 13:01:23;;;;;;;2.00;1.77;;;5.20;99.90;;;;;;481110;245;27405;-73
2021/11/23 13:03:25;;;;;;;2.90;1.55;;;5.20;99.90;;;;;;481117;245;27907;-74
2021/11/23 13:05:27;;;;;;;2.33;2.08;;;5.30;99.90;;;;;;481091;245;27852;-73
2021/11/23 13:07:27;;;;;;;2.80;1.83;;;5.20;99.90;;;;;;481009;245;27927;-74
2021/11/23 13:09:28;;;;;;;2.00;1.90;;;5.20;99.90;;;;;;481106;245;27429;-74
2021/11/23 13:11:30;;;;;;;1.80;1.80;;;5.20;99.90;;;;;;481112;245;27419;-73
2021/11/23 13:13:34;;;;;;;3.35;1.90;;;5.30;99.90;;;;;;481118;245;27548;-74
2021/11/23 13:15:32;;;;;;;2.03;1.50;;;5.30;99.90;;;;;;480865;247;27473;-73
2021/11/23 13:17:33;;;;;;;2.40;1.80;;;5.30;99.90;;;;;;481082;245;27481;-74
2021/11/23 13:19:35;;;;;;;4.72;1.60;;;5.30;99.90;;;;;;481152;245;27537;-74
2021/11/23 13:21:36;;;;;;;1.50;1.40;;;5.20;99.90;;;;;;481128;245;27421;-73
2021/11/23 13:23:38;;;;;;;1.75;1.55;;;5.20;99.90;;;;;;481125;245;27513;-74
2021/11/23 13:25:38;;;;;;;1.62;1.52;;;5.30;99.90;;;;;;481105;245;27979;-73
2021/11/23 13:27:40;;;;;;;1.80;1.70;;;5.30;99.90;;;;;;481102;245;27903;-74
2021/11/23 13:29:45;;;;;;;1.75;1.40;;;5.20;99.90;;;;;;481091;245;29109;-74
2021/11/23 13:31:43;;;;;;;3.55;1.50;;;5.10;99.90;;;;;;480898;247;27405;-73
2021/11/23 13:33:43;;;;;;;1.60;1.50;;;5.20;99.90;;;;;;481069;245;27425;-74
2021/11/23 13:35:45;;;;;;;4.22;1.55;;;5.30;99.90;;;;;;481079;245;27691;-73
2021/11/23 13:37:49;;;;;;;3.60;1.80;;;5.30;99.90;;;;;;481925;242;27385;-72
2021/11/23 13:39:49;;;;;;;2.83;1.50;;;5.30;99.90;;;;;;483935;242;27457;-73
2021/11/23 13:41:48;;;;;;;1.75;1.25;;;5.40;99.90;;;;;;485933;244;27388;-73
2021/11/23 13:43:50;;;;;;;1.92;1.40;;;5.40;99.90;;;;;;486038;244;27508;-74
2021/11/23 13:45:51;;;;;;;4.30;1.60;;;5.40;99.90;;;;;;486053;244;27877;-74
2021/11/23 13:47:52;;;;;;;1.55;1.30;;;5.40;99.90;;;;;;486078;244;27845;-73
2021/11/23 13:49:53;;;;;;;3.35;1.70;;;5.40;99.90;;;;;;485996;244;27978;-74
2021/11/23 13:51:55;;;;;;;1.95;1.50;;;5.50;99.90;;;;;;485938;244;27879;-74
2021/11/23 13:53:56;;;;;;;3.05;1.50;;;5.50;99.90;;;;;;486000;244;27496;-74
2021/11/23 13:55:57;;;;;;;1.75;1.30;;;5.50;99.90;;;;;;486013;244;27441;-75
2021/11/23 13:57:58;;;;;;;2.47;1.95;;;5.40;99.90;;;;;;486034;244;27373;-73
2021/11/23 14:00:00;;;;;;;1.40;1.30;;;5.40;99.90;;;;;;486045;244;27493;-74
2021/11/23 14:02:01;;;;;;;2.83;1.50;;;5.40;99.90;;;;;;485971;244;27508;-74
2021/11/23 14:04:02;;;;;;;5.93;1.50;;;5.40;99.90;;;;;;485967;244;27488;-73
2021/11/23 14:06:04;;;;;;;1.40;1.30;;;5.50;99.90;;;;;;486009;244;27516;-73
2021/11/23 14:08:05;;;;;;;1.65;1.40;;;5.50;99.90;;;;;;486035;244;27500;-73
2021/11/23 14:10:07;;;;;;;1.40;1.30;;;5.50;99.90;;;;;;486014;244;27448;-74
2021/11/23 14:12:08;;;;;;;2.62;1.30;;;5.50;99.90;;;;;;485915;244;29073;-74
2021/11/23 14:14:09;;;;;;;1.60;1.27;;;5.50;99.90;;;;;;486014;244;27846;-73
2021/11/23 14:16:10;;;;;;;2.03;1.50;;;5.40;99.90;;;;;;485701;244;29933;-74
2021/11/23 14:18:12;;;;;;;1.87;1.62;;;5.40;99.90;;;;;;485896;244;27452;-73